sensor_id;sensor_type;location;lat;lon;timestamp;P1;durP1;ratioP1;P2;durP2;ratioP2
72394;SDS011;60384;48.152;11.614;2024-01-06T00:01:39;14.05;;;6.97;;
72394;SDS011;60384;48.152;11.614;2024-01-06T00:04:41;13.48;;;6.80;;
72394;SDS011;60384;48.152;11.614;2024-01-06T00:10:45;12.65;;;5.97;;
72394;SDS011;60384;48.152;11.614;2024-01-06T00:13:47;11.23;;;5.22;;
72394;SDS011;60384;48.152;11.614;2024-01-06T00:16:50;11.52;;;6.18;;
72394;SDS011;60384;48.152;11.614;2024-01-06T00:19:52;14.65;;;7.07;;
72394;SDS011;60384;48.152;11.614;2024-01-06T00:22:54;13.48;;;7.22;;
72394;SDS011;60384;48.152;11.614;2024-01-06T00:25:59;15.45;;;7.90;;
72394;SDS011;60384;48.152;11.614;2024-01-06T00:29:01;16.55;;;7.25;;
72394;SDS011;60384;48.152;11.614;2024-01-06T00:32:05;15.02;;;7.65;;
72394;SDS011;60384;48.152;11.614;2024-01-06T00:35:07;14.48;;;7.72;;
72394;SDS011;60384;48.152;11.614;2024-01-06T00:38:09;15.05;;;7.43;;
72394;SDS011;60384;48.152;11.614;2024-01-06T00:41:11;15.82;;;7.30;;
72394;SDS011;60384;48.152;11.614;2024-01-06T00:44:13;14.10;;;6.90;;
72394;SDS011;60384;48.152;11.614;2024-01-06T00:47:17;12.52;;;6.18;;
72394;SDS011;60384;48.152;11.614;2024-01-06T00:50:19;14.27;;;6.63;;
72394;SDS011;60384;48.152;11.614;2024-01-06T00:53:21;12.93;;;6.75;;
72394;SDS011;60384;48.152;11.614;2024-01-06T00:56:23;12.93;;;6.97;;
72394;SDS011;60384;48.152;11.614;2024-01-06T00:59:27;14.32;;;7.07;;
72394;SDS011;60384;48.152;11.614;2024-01-06T01:02:30;14.98;;;7.25;;
72394;SDS011;60384;48.152;11.614;2024-01-06T01:05:32;13.32;;;6.85;;
72394;SDS011;60384;48.152;11.614;2024-01-06T01:08:34;13.93;;;6.47;;
72394;SDS011;60384;48.152;11.614;2024-01-06T01:11:36;14.18;;;5.82;;
72394;SDS011;60384;48.152;11.614;2024-01-06T01:14:38;10.05;;;4.38;;
72394;SDS011;60384;48.152;11.614;2024-01-06T01:17:42;9.25;;;4.00;;
72394;SDS011;60384;48.152;11.614;2024-01-06T01:20:44;9.73;;;4.22;;
72394;SDS011;60384;48.152;11.614;2024-01-06T01:23:46;8.30;;;3.50;;
72394;SDS011;60384;48.152;11.614;2024-01-06T01:26:48;8.43;;;3.42;;
72394;SDS011;60384;48.152;11.614;2024-01-06T01:29:50;9.05;;;4.03;;
72394;SDS011;60384;48.152;11.614;2024-01-06T01:32:54;5.72;;;2.80;;
72394;SDS011;60384;48.152;11.614;2024-01-06T01:35:56;8.70;;;3.42;;
72394;SDS011;60384;48.152;11.614;2024-01-06T01:38:58;6.88;;;2.55;;
72394;SDS011;60384;48.152;11.614;2024-01-06T01:42:00;5.47;;;2.00;;
72394;SDS011;60384;48.152;11.614;2024-01-06T01:45:02;4.35;;;1.98;;
72394;SDS011;60384;48.152;11.614;2024-01-06T01:48:07;6.32;;;2.38;;
72394;SDS011;60384;48.152;11.614;2024-01-06T01:51:08;5.45;;;2.47;;
72394;SDS011;60384;48.152;11.614;2024-01-06T01:54:11;6.45;;;2.28;;
72394;SDS011;60384;48.152;11.614;2024-01-06T02:00:16;5.57;;;2.00;;
72394;SDS011;60384;48.152;11.614;2024-01-06T02:03:20;6.22;;;2.05;;
72394;SDS011;60384;48.152;11.614;2024-01-06T02:06:23;5.07;;;1.80;;
72394;SDS011;60384;48.152;11.614;2024-01-06T02:09:25;4.03;;;1.52;;
72394;SDS011;60384;48.152;11.614;2024-01-06T02:12:29;4.10;;;1.50;;
72394;SDS011;60384;48.152;11.614;2024-01-06T02:15:31;4.10;;;1.23;;
72394;SDS011;60384;48.152;11.614;2024-01-06T02:18:36;3.15;;;1.30;;
72394;SDS011;60384;48.152;11.614;2024-01-06T02:21:38;3.28;;;1.40;;
72394;SDS011;60384;48.152;11.614;2024-01-06T02:24:44;4.90;;;1.67;;
72394;SDS011;60384;48.152;11.614;2024-01-06T02:27:46;2.90;;;1.10;;
72394;SDS011;60384;48.152;11.614;2024-01-06T02:30:49;3.78;;;1.50;;
72394;SDS011;60384;48.152;11.614;2024-01-06T02:33:51;4.53;;;1.33;;
72394;SDS011;60384;48.152;11.614;2024-01-06T02:36:53;3.85;;;1.48;;
72394;SDS011;60384;48.152;11.614;2024-01-06T02:39:56;3.03;;;1.30;;
72394;SDS011;60384;48.152;11.614;2024-01-06T02:42:58;2.72;;;1.50;;
72394;SDS011;60384;48.152;11.614;2024-01-06T02:46:00;4.45;;;1.70;;
72394;SDS011;60384;48.152;11.614;2024-01-06T02:49:02;6.43;;;1.90;;
72394;SDS011;60384;48.152;11.614;2024-01-06T02:52:04;4.75;;;1.88;;
72394;SDS011;60384;48.152;11.614;2024-01-06T02:55:08;3.35;;;1.55;;
72394;SDS011;60384;48.152;11.614;2024-01-06T02:58:10;4.43;;;1.80;;
72394;SDS011;60384;48.152;11.614;2024-01-06T03:01:12;4.72;;;1.77;;
72394;SDS011;60384;48.152;11.614;2024-01-06T03:04:14;5.70;;;1.90;;
72394;SDS011;60384;48.152;11.614;2024-01-06T03:07:16;6.32;;;1.83;;
72394;SDS011;60384;48.152;11.614;2024-01-06T03:10:19;3.92;;;1.67;;
72394;SDS011;60384;48.152;11.614;2024-01-06T03:13:21;6.60;;;2.28;;
72394;SDS011;60384;48.152;11.614;2024-01-06T03:16:23;4.05;;;1.45;;
72394;SDS011;60384;48.152;11.614;2024-01-06T03:19:25;4.43;;;1.58;;
72394;SDS011;60384;48.152;11.614;2024-01-06T03:22:27;1.73;;;0.90;;
72394;SDS011;60384;48.152;11.614;2024-01-06T03:25:31;1.63;;;0.80;;
72394;SDS011;60384;48.152;11.614;2024-01-06T03:28:32;3.55;;;1.17;;
72394;SDS011;60384;48.152;11.614;2024-01-06T03:31:34;3.95;;;1.23;;
72394;SDS011;60384;48.152;11.614;2024-01-06T03:34:36;3.25;;;0.93;;
72394;SDS011;60384;48.152;11.614;2024-01-06T03:37:38;2.60;;;0.75;;
72394;SDS011;60384;48.152;11.614;2024-01-06T03:40:41;4.50;;;1.30;;
72394;SDS011;60384;48.152;11.614;2024-01-06T03:43:43;3.92;;;1.70;;
72394;SDS011;60384;48.152;11.614;2024-01-06T03:46:45;4.43;;;1.55;;
72394;SDS011;60384;48.152;11.614;2024-01-06T03:49:47;4.50;;;1.77;;
72394;SDS011;60384;48.152;11.614;2024-01-06T03:52:49;4.25;;;1.50;;
72394;SDS011;60384;48.152;11.614;2024-01-06T03:55:52;3.97;;;1.88;;
72394;SDS011;60384;48.152;11.614;2024-01-06T03:58:54;5.97;;;2.08;;
72394;SDS011;60384;48.152;11.614;2024-01-06T04:01:56;6.38;;;2.28;;
72394;SDS011;60384;48.152;11.614;2024-01-06T04:04:58;4.00;;;1.38;;
72394;SDS011;60384;48.152;11.614;2024-01-06T04:08:00;4.68;;;1.67;;
72394;SDS011;60384;48.152;11.614;2024-01-06T04:11:04;3.03;;;1.40;;
72394;SDS011;60384;48.152;11.614;2024-01-06T04:14:06;4.00;;;1.40;;
72394;SDS011;60384;48.152;11.614;2024-01-06T04:17:08;2.25;;;1.20;;
72394;SDS011;60384;48.152;11.614;2024-01-06T04:20:10;3.85;;;1.50;;
72394;SDS011;60384;48.152;11.614;2024-01-06T04:23:13;3.10;;;1.13;;
72394;SDS011;60384;48.152;11.614;2024-01-06T04:26:16;2.10;;;0.95;;
72394;SDS011;60384;48.152;11.614;2024-01-06T04:29:18;2.72;;;1.08;;
72394;SDS011;60384;48.152;11.614;2024-01-06T04:32:20;2.65;;;1.23;;
72394;SDS011;60384;48.152;11.614;2024-01-06T04:35:22;3.08;;;0.90;;
72394;SDS011;60384;48.152;11.614;2024-01-06T04:38:24;2.35;;;1.10;;
72394;SDS011;60384;48.152;11.614;2024-01-06T04:41:27;1.27;;;0.68;;
72394;SDS011;60384;48.152;11.614;2024-01-06T04:44:29;1.17;;;0.80;;
72394;SDS011;60384;48.152;11.614;2024-01-06T04:47:31;0.70;;;0.38;;
72394;SDS011;60384;48.152;11.614;2024-01-06T04:50:33;1.95;;;0.70;;
72394;SDS011;60384;48.152;11.614;2024-01-06T04:53:35;0.85;;;0.30;;
72394;SDS011;60384;48.152;11.614;2024-01-06T04:56:38;0.10;;;0.05;;
72394;SDS011;60384;48.152;11.614;2024-01-06T04:59:41;0.30;;;0.20;;
72394;SDS011;60384;48.152;11.614;2024-01-06T05:05:45;0.10;;;0.10;;
72394;SDS011;60384;48.152;11.614;2024-01-06T05:08:47;1.27;;;0.40;;
72394;SDS011;60384;48.152;11.614;2024-01-06T05:11:50;0.20;;;0.20;;
72394;SDS011;60384;48.152;11.614;2024-01-06T05:14:52;0.30;;;0.22;;
72394;SDS011;60384;48.152;11.614;2024-01-06T05:17:54;0.57;;;0.40;;
72394;SDS011;60384;48.152;11.614;2024-01-06T05:20:56;0.20;;;0.20;;
72394;SDS011;60384;48.152;11.614;2024-01-06T05:27:02;0.10;;;0.10;;
72394;SDS011;60384;48.152;11.614;2024-01-06T05:30:05;0.17;;;0.10;;
72394;SDS011;60384;48.152;11.614;2024-01-06T05:33:09;0.32;;;0.22;;
72394;SDS011;60384;48.152;11.614;2024-01-06T05:36:13;0.75;;;0.28;;
72394;SDS011;60384;48.152;11.614;2024-01-06T05:39:15;0.47;;;0.28;;
72394;SDS011;60384;48.152;11.614;2024-01-06T05:42:18;0.32;;;0.30;;
72394;SDS011;60384;48.152;11.614;2024-01-06T05:45:20;0.10;;;0.10;;
72394;SDS011;60384;48.152;11.614;2024-01-06T05:51:24;0.50;;;0.50;;
72394;SDS011;60384;48.152;11.614;2024-01-06T05:54:26;0.43;;;0.35;;
72394;SDS011;60384;48.152;11.614;2024-01-06T05:57:29;0.80;;;0.20;;
72394;SDS011;60384;48.152;11.614;2024-01-06T06:00:31;0.77;;;0.60;;
72394;SDS011;60384;48.152;11.614;2024-01-06T06:03:36;0.70;;;0.38;;
72394;SDS011;60384;48.152;11.614;2024-01-06T06:06:38;1.48;;;0.40;;
72394;SDS011;60384;48.152;11.614;2024-01-06T06:09:40;0.98;;;0.40;;
72394;SDS011;60384;48.152;11.614;2024-01-06T06:12:43;0.50;;;0.50;;
72394;SDS011;60384;48.152;11.614;2024-01-06T06:15:45;1.80;;;0.70;;
72394;SDS011;60384;48.152;11.614;2024-01-06T06:18:47;1.35;;;0.60;;
72394;SDS011;60384;48.152;11.614;2024-01-06T06:21:49;0.85;;;0.38;;
72394;SDS011;60384;48.152;11.614;2024-01-06T06:24:51;3.17;;;1.20;;
72394;SDS011;60384;48.152;11.614;2024-01-06T06:27:55;3.65;;;1.63;;
72394;SDS011;60384;48.152;11.614;2024-01-06T06:30:57;4.00;;;1.27;;
72394;SDS011;60384;48.152;11.614;2024-01-06T06:33:59;4.80;;;1.10;;
72394;SDS011;60384;48.152;11.614;2024-01-06T06:37:00;4.00;;;1.52;;
72394;SDS011;60384;48.152;11.614;2024-01-06T06:40:04;2.17;;;0.80;;
72394;SDS011;60384;48.152;11.614;2024-01-06T06:43:08;3.40;;;1.13;;
72394;SDS011;60384;48.152;11.614;2024-01-06T06:46:10;2.72;;;1.30;;
72394;SDS011;60384;48.152;11.614;2024-01-06T06:49:12;1.48;;;0.70;;
72394;SDS011;60384;48.152;11.614;2024-01-06T06:52:14;2.28;;;1.10;;
72394;SDS011;60384;48.152;11.614;2024-01-06T06:55:16;2.75;;;1.40;;
72394;SDS011;60384;48.152;11.614;2024-01-06T06:58:20;3.42;;;1.27;;
72394;SDS011;60384;48.152;11.614;2024-01-06T07:01:22;2.70;;;1.23;;
72394;SDS011;60384;48.152;11.614;2024-01-06T07:04:23;4.03;;;1.45;;
72394;SDS011;60384;48.152;11.614;2024-01-06T07:07:26;4.18;;;1.77;;
72394;SDS011;60384;48.152;11.614;2024-01-06T07:10:38;5.35;;;1.67;;
72394;SDS011;60384;48.152;11.614;2024-01-06T07:13:41;4.32;;;1.75;;
72394;SDS011;60384;48.152;11.614;2024-01-06T07:16:43;4.32;;;1.48;;
72394;SDS011;60384;48.152;11.614;2024-01-06T07:19:45;5.57;;;1.77;;
72394;SDS011;60384;48.152;11.614;2024-01-06T07:22:47;4.60;;;1.20;;
72394;SDS011;60384;48.152;11.614;2024-01-06T07:25:49;3.42;;;1.40;;
72394;SDS011;60384;48.152;11.614;2024-01-06T07:28:52;4.55;;;1.83;;
72394;SDS011;60384;48.152;11.614;2024-01-06T07:31:54;3.78;;;1.70;;
72394;SDS011;60384;48.152;11.614;2024-01-06T07:34:56;5.28;;;1.83;;
72394;SDS011;60384;48.152;11.614;2024-01-06T07:37:58;3.10;;;1.60;;
72394;SDS011;60384;48.152;11.614;2024-01-06T07:41:01;4.97;;;1.75;;
72394;SDS011;60384;48.152;11.614;2024-01-06T07:44:06;3.42;;;1.30;;
72394;SDS011;60384;48.152;11.614;2024-01-06T07:47:08;3.78;;;1.80;;
72394;SDS011;60384;48.152;11.614;2024-01-06T07:50:10;5.25;;;1.63;;
72394;SDS011;60384;48.152;11.614;2024-01-06T07:53:11;3.50;;;1.63;;
72394;SDS011;60384;48.152;11.614;2024-01-06T07:56:17;1.42;;;0.65;;
72394;SDS011;60384;48.152;11.614;2024-01-06T07:59:21;3.33;;;1.60;;
72394;SDS011;60384;48.152;11.614;2024-01-06T08:02:23;3.00;;;1.10;;
72394;SDS011;60384;48.152;11.614;2024-01-06T08:05:25;5.10;;;1.67;;
72394;SDS011;60384;48.152;11.614;2024-01-06T08:08:27;5.50;;;1.90;;
72394;SDS011;60384;48.152;11.614;2024-01-06T08:11:29;5.88;;;2.00;;
72394;SDS011;60384;48.152;11.614;2024-01-06T08:14:32;3.85;;;1.75;;
72394;SDS011;60384;48.152;11.614;2024-01-06T08:17:34;4.28;;;1.75;;
72394;SDS011;60384;48.152;11.614;2024-01-06T08:23:38;5.07;;;1.90;;
72394;SDS011;60384;48.152;11.614;2024-01-06T08:26:40;7.50;;;2.50;;
72394;SDS011;60384;48.152;11.614;2024-01-06T08:29:43;4.95;;;1.58;;
72394;SDS011;60384;48.152;11.614;2024-01-06T08:32:47;3.80;;;1.27;;
72394;SDS011;60384;48.152;11.614;2024-01-06T08:35:51;4.03;;;1.90;;
72394;SDS011;60384;48.152;11.614;2024-01-06T08:39:32;5.55;;;2.20;;
72394;SDS011;60384;48.152;11.614;2024-01-06T08:42:34;7.85;;;2.25;;
72394;SDS011;60384;48.152;11.614;2024-01-06T08:45:38;6.15;;;2.13;;
72394;SDS011;60384;48.152;11.614;2024-01-06T08:48:40;7.22;;;2.42;;
72394;SDS011;60384;48.152;11.614;2024-01-06T08:51:42;5.72;;;2.20;;
72394;SDS011;60384;48.152;11.614;2024-01-06T08:54:44;5.93;;;2.20;;
72394;SDS011;60384;48.152;11.614;2024-01-06T08:57:46;4.82;;;1.73;;
72394;SDS011;60384;48.152;11.614;2024-01-06T09:00:52;1.75;;;0.88;;
72394;SDS011;60384;48.152;11.614;2024-01-06T09:03:54;4.63;;;1.92;;
72394;SDS011;60384;48.152;11.614;2024-01-06T09:06:56;4.18;;;1.70;;
72394;SDS011;60384;48.152;11.614;2024-01-06T09:09:58;5.15;;;1.60;;
72394;SDS011;60384;48.152;11.614;2024-01-06T09:13:00;3.38;;;1.20;;
72394;SDS011;60384;48.152;11.614;2024-01-06T09:19:06;2.80;;;0.90;;
72394;SDS011;60384;48.152;11.614;2024-01-06T09:22:08;4.57;;;1.30;;
72394;SDS011;60384;48.152;11.614;2024-01-06T09:25:10;4.35;;;0.88;;
72394;SDS011;60384;48.152;11.614;2024-01-06T09:28:13;2.30;;;0.90;;
72394;SDS011;60384;48.152;11.614;2024-01-06T09:31:16;4.05;;;1.35;;
72394;SDS011;60384;48.152;11.614;2024-01-06T09:34:18;4.72;;;1.55;;
72394;SDS011;60384;48.152;11.614;2024-01-06T09:37:21;5.50;;;1.92;;
72394;SDS011;60384;48.152;11.614;2024-01-06T09:40:23;5.10;;;1.95;;
72394;SDS011;60384;48.152;11.614;2024-01-06T09:43:25;3.78;;;1.60;;
72394;SDS011;60384;48.152;11.614;2024-01-06T09:49:31;5.60;;;1.85;;
72394;SDS011;60384;48.152;11.614;2024-01-06T09:52:34;15.20;;;4.20;;
72394;SDS011;60384;48.152;11.614;2024-01-06T09:55:41;7.28;;;3.13;;
72394;SDS011;60384;48.152;11.614;2024-01-06T09:58:44;11.27;;;3.00;;
72394;SDS011;60384;48.152;11.614;2024-01-06T10:01:48;9.35;;;2.47;;
72394;SDS011;60384;48.152;11.614;2024-01-06T10:04:53;7.45;;;2.45;;
72394;SDS011;60384;48.152;11.614;2024-01-06T10:07:55;5.28;;;1.88;;
72394;SDS011;60384;48.152;11.614;2024-01-06T10:10:57;5.05;;;1.77;;
72394;SDS011;60384;48.152;11.614;2024-01-06T10:14:02;1.70;;;0.65;;
72394;SDS011;60384;48.152;11.614;2024-01-06T10:17:06;3.95;;;1.55;;
72394;SDS011;60384;48.152;11.614;2024-01-06T10:20:09;6.22;;;2.22;;
72394;SDS011;60384;48.152;11.614;2024-01-06T10:23:12;7.90;;;2.05;;
72394;SDS011;60384;48.152;11.614;2024-01-06T10:26:14;5.57;;;2.45;;
72394;SDS011;60384;48.152;11.614;2024-01-06T10:29:18;7.60;;;2.42;;
72394;SDS011;60384;48.152;11.614;2024-01-06T10:32:21;6.95;;;2.50;;
72394;SDS011;60384;48.152;11.614;2024-01-06T10:35:27;6.00;;;2.42;;
72394;SDS011;60384;48.152;11.614;2024-01-06T10:38:29;7.68;;;2.53;;
72394;SDS011;60384;48.152;11.614;2024-01-06T10:41:31;5.20;;;2.35;;
72394;SDS011;60384;48.152;11.614;2024-01-06T10:44:34;8.00;;;2.15;;
72394;SDS011;60384;48.152;11.614;2024-01-06T10:47:40;9.60;;;2.97;;
72394;SDS011;60384;48.152;11.614;2024-01-06T10:50:42;5.95;;;2.45;;
72394;SDS011;60384;48.152;11.614;2024-01-06T10:53:46;6.28;;;2.60;;
72394;SDS011;60384;48.152;11.614;2024-01-06T10:56:50;7.47;;;2.33;;
72394;SDS011;60384;48.152;11.614;2024-01-06T10:59:53;6.50;;;2.75;;
72394;SDS011;60384;48.152;11.614;2024-01-06T11:02:58;8.77;;;2.67;;
72394;SDS011;60384;48.152;11.614;2024-01-06T11:06:01;5.57;;;2.50;;
72394;SDS011;60384;48.152;11.614;2024-01-06T11:09:06;9.07;;;2.95;;
72394;SDS011;60384;48.152;11.614;2024-01-06T11:12:15;6.68;;;2.40;;
72394;SDS011;60384;48.152;11.614;2024-01-06T11:18:36;2.67;;;1.15;;
72394;SDS011;60384;48.152;11.614;2024-01-06T11:21:40;7.35;;;2.33;;
72394;SDS011;60384;48.152;11.614;2024-01-06T11:24:42;7.38;;;2.55;;
72394;SDS011;60384;48.152;11.614;2024-01-06T11:27:49;8.70;;;3.50;;
72394;SDS011;60384;48.152;11.614;2024-01-06T11:31:04;7.90;;;2.55;;
72394;SDS011;60384;48.152;11.614;2024-01-06T11:34:14;7.20;;;2.75;;
72394;SDS011;60384;48.152;11.614;2024-01-06T11:37:19;7.57;;;3.10;;
72394;SDS011;60384;48.152;11.614;2024-01-06T11:40:25;6.80;;;2.30;;
72394;SDS011;60384;48.152;11.614;2024-01-06T11:43:33;6.68;;;2.13;;
72394;SDS011;60384;48.152;11.614;2024-01-06T11:46:36;7.47;;;3.03;;
72394;SDS011;60384;48.152;11.614;2024-01-06T11:49:39;5.93;;;2.53;;
72394;SDS011;60384;48.152;11.614;2024-01-06T11:52:46;6.65;;;2.65;;
72394;SDS011;60384;48.152;11.614;2024-01-06T11:55:48;10.63;;;3.10;;
72394;SDS011;60384;48.152;11.614;2024-01-06T11:58:51;4.80;;;1.55;;
72394;SDS011;60384;48.152;11.614;2024-01-06T12:01:53;2.42;;;0.43;;
72394;SDS011;60384;48.152;11.614;2024-01-06T12:04:57;8.38;;;3.35;;
72394;SDS011;60384;48.152;11.614;2024-01-06T12:08:00;7.70;;;2.40;;
72394;SDS011;60384;48.152;11.614;2024-01-06T12:11:05;8.10;;;3.47;;
72394;SDS011;60384;48.152;11.614;2024-01-06T12:14:07;4.72;;;1.90;;
72394;SDS011;60384;48.152;11.614;2024-01-06T12:17:09;7.28;;;3.08;;
72394;SDS011;60384;48.152;11.614;2024-01-06T12:20:14;5.63;;;2.45;;
72394;SDS011;60384;48.152;11.614;2024-01-06T12:23:23;9.77;;;4.03;;
72394;SDS011;60384;48.152;11.614;2024-01-06T12:26:26;9.38;;;3.92;;
72394;SDS011;60384;48.152;11.614;2024-01-06T12:29:30;6.72;;;1.95;;
72394;SDS011;60384;48.152;11.614;2024-01-06T12:32:33;8.52;;;3.92;;
72394;SDS011;60384;48.152;11.614;2024-01-06T12:35:36;7.55;;;2.85;;
72394;SDS011;60384;48.152;11.614;2024-01-06T12:38:38;7.22;;;2.97;;
72394;SDS011;60384;48.152;11.614;2024-01-06T12:41:40;6.50;;;2.72;;
72394;SDS011;60384;48.152;11.614;2024-01-06T12:44:42;9.10;;;3.70;;
72394;SDS011;60384;48.152;11.614;2024-01-06T12:47:44;10.25;;;3.00;;
72394;SDS011;60384;48.152;11.614;2024-01-06T12:50:47;7.13;;;2.15;;
72394;SDS011;60384;48.152;11.614;2024-01-06T12:53:49;6.65;;;2.55;;
72394;SDS011;60384;48.152;11.614;2024-01-06T12:56:51;6.75;;;2.47;;
72394;SDS011;60384;48.152;11.614;2024-01-06T12:59:53;5.15;;;2.20;;
72394;SDS011;60384;48.152;11.614;2024-01-06T13:02:55;6.60;;;2.53;;
72394;SDS011;60384;48.152;11.614;2024-01-06T13:05:58;5.50;;;2.38;;
72394;SDS011;60384;48.152;11.614;2024-01-06T13:09:01;6.45;;;2.45;;
72394;SDS011;60384;48.152;11.614;2024-01-06T13:12:07;8.63;;;3.10;;
72394;SDS011;60384;48.152;11.614;2024-01-06T13:15:09;8.50;;;2.78;;
72394;SDS011;60384;48.152;11.614;2024-01-06T13:18:11;8.77;;;3.25;;
72394;SDS011;60384;48.152;11.614;2024-01-06T13:21:18;6.82;;;2.78;;
72394;SDS011;60384;48.152;11.614;2024-01-06T13:24:21;7.07;;;2.85;;
72394;SDS011;60384;48.152;11.614;2024-01-06T13:27:23;10.30;;;3.80;;
72394;SDS011;60384;48.152;11.614;2024-01-06T13:30:27;8.13;;;3.00;;
72394;SDS011;60384;48.152;11.614;2024-01-06T13:33:29;7.22;;;2.97;;
72394;SDS011;60384;48.152;11.614;2024-01-06T13:36:32;8.65;;;3.40;;
72394;SDS011;60384;48.152;11.614;2024-01-06T13:39:34;9.15;;;3.67;;
72394;SDS011;60384;48.152;11.614;2024-01-06T13:42:36;53.67;;;11.32;;
72394;SDS011;60384;48.152;11.614;2024-01-06T13:45:38;9.55;;;3.78;;
72394;SDS011;60384;48.152;11.614;2024-01-06T13:48:41;9.27;;;3.50;;
72394;SDS011;60384;48.152;11.614;2024-01-06T13:51:45;8.85;;;3.17;;
72394;SDS011;60384;48.152;11.614;2024-01-06T13:54:47;7.47;;;3.33;;
72394;SDS011;60384;48.152;11.614;2024-01-06T13:57:49;7.50;;;3.40;;
72394;SDS011;60384;48.152;11.614;2024-01-06T14:00:51;8.02;;;3.42;;
72394;SDS011;60384;48.152;11.614;2024-01-06T14:03:53;10.20;;;3.55;;
72394;SDS011;60384;48.152;11.614;2024-01-06T14:06:59;8.00;;;3.17;;
72394;SDS011;60384;48.152;11.614;2024-01-06T14:10:02;9.77;;;3.00;;
72394;SDS011;60384;48.152;11.614;2024-01-06T14:13:04;9.60;;;3.78;;
72394;SDS011;60384;48.152;11.614;2024-01-06T14:16:07;3.70;;;1.50;;
72394;SDS011;60384;48.152;11.614;2024-01-06T14:19:10;8.73;;;3.38;;
72394;SDS011;60384;48.152;11.614;2024-01-06T14:22:13;11.23;;;3.03;;
72394;SDS011;60384;48.152;11.614;2024-01-06T14:25:15;8.07;;;2.90;;
72394;SDS011;60384;48.152;11.614;2024-01-06T14:28:18;5.65;;;2.20;;
72394;SDS011;60384;48.152;11.614;2024-01-06T14:31:20;2.40;;;1.20;;
72394;SDS011;60384;48.152;11.614;2024-01-06T14:34:22;8.82;;;3.42;;
72394;SDS011;60384;48.152;11.614;2024-01-06T14:40:28;9.30;;;3.17;;
72394;SDS011;60384;48.152;11.614;2024-01-06T14:43:30;8.07;;;2.65;;
72394;SDS011;60384;48.152;11.614;2024-01-06T14:49:35;5.55;;;1.83;;
72394;SDS011;60384;48.152;11.614;2024-01-06T14:52:41;12.93;;;3.63;;
72394;SDS011;60384;48.152;11.614;2024-01-06T14:55:43;8.13;;;3.17;;
72394;SDS011;60384;48.152;11.614;2024-01-06T14:58:45;9.88;;;4.00;;
72394;SDS011;60384;48.152;11.614;2024-01-06T15:01:47;2.60;;;1.35;;
72394;SDS011;60384;48.152;11.614;2024-01-06T15:04:49;10.60;;;3.72;;
72394;SDS011;60384;48.152;11.614;2024-01-06T15:07:52;6.18;;;2.45;;
72394;SDS011;60384;48.152;11.614;2024-01-06T15:11:00;9.10;;;3.42;;
72394;SDS011;60384;48.152;11.614;2024-01-06T15:14:03;7.95;;;3.33;;
72394;SDS011;60384;48.152;11.614;2024-01-06T15:17:08;8.25;;;2.95;;
72394;SDS011;60384;48.152;11.614;2024-01-06T15:20:11;2.72;;;0.93;;
72394;SDS011;60384;48.152;11.614;2024-01-06T15:23:15;8.23;;;3.83;;
72394;SDS011;60384;48.152;11.614;2024-01-06T15:26:21;10.18;;;3.78;;
72394;SDS011;60384;48.152;11.614;2024-01-06T15:29:23;4.97;;;2.13;;
72394;SDS011;60384;48.152;11.614;2024-01-06T15:32:25;5.10;;;1.85;;
72394;SDS011;60384;48.152;11.614;2024-01-06T15:35:27;5.88;;;2.63;;
72394;SDS011;60384;48.152;11.614;2024-01-06T15:38:31;8.02;;;2.90;;
72394;SDS011;60384;48.152;11.614;2024-01-06T15:41:33;6.47;;;2.67;;
72394;SDS011;60384;48.152;11.614;2024-01-06T15:44:38;7.38;;;3.30;;
72394;SDS011;60384;48.152;11.614;2024-01-06T15:47:40;10.02;;;3.70;;
72394;SDS011;60384;48.152;11.614;2024-01-06T15:50:42;6.20;;;2.40;;
72394;SDS011;60384;48.152;11.614;2024-01-06T15:53:49;8.40;;;3.58;;
72394;SDS011;60384;48.152;11.614;2024-01-06T15:56:54;11.00;;;4.63;;
72394;SDS011;60384;48.152;11.614;2024-01-06T15:59:57;5.50;;;2.15;;
72394;SDS011;60384;48.152;11.614;2024-01-06T16:06:29;8.52;;;3.80;;
72394;SDS011;60384;48.152;11.614;2024-01-06T16:09:48;7.10;;;3.05;;
72394;SDS011;60384;48.152;11.614;2024-01-06T16:13:06;10.27;;;4.33;;
72394;SDS011;60384;48.152;11.614;2024-01-06T16:16:17;7.75;;;3.42;;
72394;SDS011;60384;48.152;11.614;2024-01-06T16:19:41;8.07;;;3.20;;
72394;SDS011;60384;48.152;11.614;2024-01-06T16:22:45;9.85;;;4.65;;
72394;SDS011;60384;48.152;11.614;2024-01-06T16:28:50;11.35;;;4.78;;
72394;SDS011;60384;48.152;11.614;2024-01-06T16:31:55;9.65;;;4.65;;
72394;SDS011;60384;48.152;11.614;2024-01-06T16:34:57;10.70;;;5.32;;
72394;SDS011;60384;48.152;11.614;2024-01-06T16:38:08;11.05;;;5.15;;
72394;SDS011;60384;48.152;11.614;2024-01-06T16:41:14;10.55;;;5.20;;
72394;SDS011;60384;48.152;11.614;2024-01-06T16:44:16;11.57;;;5.78;;
72394;SDS011;60384;48.152;11.614;2024-01-06T16:47:18;12.65;;;5.63;;
72394;SDS011;60384;48.152;11.614;2024-01-06T16:50:20;9.68;;;5.07;;
72394;SDS011;60384;48.152;11.614;2024-01-06T16:53:23;9.55;;;4.88;;
72394;SDS011;60384;48.152;11.614;2024-01-06T16:56:29;10.60;;;5.00;;
72394;SDS011;60384;48.152;11.614;2024-01-06T16:59:33;10.30;;;5.13;;
72394;SDS011;60384;48.152;11.614;2024-01-06T17:02:37;11.73;;;5.60;;
72394;SDS011;60384;48.152;11.614;2024-01-06T17:05:39;11.25;;;5.13;;
72394;SDS011;60384;48.152;11.614;2024-01-06T17:08:41;12.32;;;5.28;;
72394;SDS011;60384;48.152;11.614;2024-01-06T17:11:48;10.25;;;5.18;;
72394;SDS011;60384;48.152;11.614;2024-01-06T17:14:50;8.40;;;4.22;;
72394;SDS011;60384;48.152;11.614;2024-01-06T17:17:55;11.13;;;5.35;;
72394;SDS011;60384;48.152;11.614;2024-01-06T17:20:58;11.05;;;5.00;;
72394;SDS011;60384;48.152;11.614;2024-01-06T17:24:01;11.88;;;5.57;;
72394;SDS011;60384;48.152;11.614;2024-01-06T17:30:14;12.60;;;5.47;;
72394;SDS011;60384;48.152;11.614;2024-01-06T17:36:21;11.73;;;5.10;;
72394;SDS011;60384;48.152;11.614;2024-01-06T17:39:23;11.63;;;5.40;;
72394;SDS011;60384;48.152;11.614;2024-01-06T17:45:28;9.73;;;4.53;;
72394;SDS011;60384;48.152;11.614;2024-01-06T17:48:33;11.95;;;5.88;;
72394;SDS011;60384;48.152;11.614;2024-01-06T17:51:36;12.43;;;6.22;;
72394;SDS011;60384;48.152;11.614;2024-01-06T17:54:38;12.60;;;6.05;;
72394;SDS011;60384;48.152;11.614;2024-01-06T17:57:41;11.80;;;5.70;;
72394;SDS011;60384;48.152;11.614;2024-01-06T18:00:43;12.25;;;5.43;;
72394;SDS011;60384;48.152;11.614;2024-01-06T18:06:47;11.37;;;5.63;;
72394;SDS011;60384;48.152;11.614;2024-01-06T18:09:49;13.18;;;5.80;;
72394;SDS011;60384;48.152;11.614;2024-01-06T18:15:56;10.73;;;5.07;;
72394;SDS011;60384;48.152;11.614;2024-01-06T18:18:58;10.32;;;5.20;;
72394;SDS011;60384;48.152;11.614;2024-01-06T18:22:01;9.65;;;4.68;;
72394;SDS011;60384;48.152;11.614;2024-01-06T18:25:03;9.63;;;4.65;;
72394;SDS011;60384;48.152;11.614;2024-01-06T18:28:07;11.85;;;5.45;;
72394;SDS011;60384;48.152;11.614;2024-01-06T18:31:09;13.48;;;6.50;;
72394;SDS011;60384;48.152;11.614;2024-01-06T18:34:11;13.52;;;5.43;;
72394;SDS011;60384;48.152;11.614;2024-01-06T18:37:13;14.38;;;6.35;;
72394;SDS011;60384;48.152;11.614;2024-01-06T18:43:18;14.77;;;6.50;;
72394;SDS011;60384;48.152;11.614;2024-01-06T18:46:21;14.27;;;6.03;;
72394;SDS011;60384;48.152;11.614;2024-01-06T18:49:24;14.18;;;6.47;;
72394;SDS011;60384;48.152;11.614;2024-01-06T18:52:26;14.20;;;7.15;;
72394;SDS011;60384;48.152;11.614;2024-01-06T18:55:28;14.65;;;7.75;;
72394;SDS011;60384;48.152;11.614;2024-01-06T18:58:31;16.50;;;8.45;;
72394;SDS011;60384;48.152;11.614;2024-01-06T19:01:33;14.82;;;6.43;;